Time,TemperatureF,DewpointF,PressureIn,WindDirection,WindDirectionDegrees,WindSpeedMPH,WindSpeedGustMPH,Humidity,HourlyPrecipIn,Conditions,Clouds,dailyrainin,SoftwareType,DateUTC
2013-09-22 00:03:00,50.1,30.7,29.78,WNW,300,2.0,2.0,47,0.00,,---,0.00,VWS V14.01,2013-09-22 06:03:00,
2013-09-22 00:08:00,49.9,30.0,29.78,WNW,300,0.0,0.0,46,0.00,,---,0.00,VWS V14.01,2013-09-22 06:08:00,
2013-09-22 00:13:00,49.9,30.5,29.78,WNW,300,0.0,1.0,47,0.00,,---,0.00,VWS V14.01,2013-09-22 06:13:00,
2013-09-22 00:18:00,50.1,30.1,29.77,WNW,300,0.0,2.0,46,0.00,,---,0.00,VWS V14.01,2013-09-22 06:18:00,
2013-09-22 00:23:00,50.0,30.6,29.77,WNW,300,0.0,0.0,47,0.00,,---,0.00,VWS V14.01,2013-09-22 06:23:00,
2013-09-22 00:28:00,49.8,29.9,29.78,WNW,300,1.0,1.0,46,0.00,,---,0.00,VWS V14.01,2013-09-22 06:28:00,
2013-09-22 00:33:00,49.7,29.8,29.77,WNW,300,0.0,2.0,46,0.00,,---,0.00,VWS V14.01,2013-09-22 06:33:00,
2013-09-22 00:38:00,49.8,29.9,29.77,WNW,300,1.0,1.0,46,0.00,,---,0.00,VWS V14.01,2013-09-22 06:38:00,
2013-09-22 00:43:00,49.9,30.0,29.77,WNW,300,2.0,5.0,46,0.00,,---,0.00,VWS V14.01,2013-09-22 06:43:00,
2013-09-22 00:48:00,50.1,29.6,29.77,WNW,300,2.0,4.0,45,0.00,,---,0.00,VWS V14.01,2013-09-22 06:48:00,
2013-09-22 00:53:00,50.5,30.0,29.77,WNW,300,1.0,2.0,45,0.00,,---,0.00,VWS V14.01,2013-09-22 06:53:00,
2013-09-22 00:58:00,50.4,29.9,29.77,WNW,300,5.0,5.0,45,0.00,,---,0.00,VWS V14.01,2013-09-22 06:58:00,
2013-09-22 01:03:00,50.3,29.8,29.77,WNW,300,2.0,4.0,45,0.00,,---,0.00,VWS V14.01,2013-09-22 07:03:00,
2013-09-22 01:08:00,50.1,29.6,29.77,WNW,300,2.0,4.0,45,0.00,,---,0.00,VWS V14.01,2013-09-22 07:08:00,
2013-09-22 01:13:00,50.1,29.6,29.76,WNW,300,5.0,5.0,45,0.00,,---,0.00,VWS V14.01,2013-09-22 07:13:00,
2013-09-22 01:18:00,50.1,29.6,29.76,WNW,300,0.0,4.0,45,0.00,,---,0.00,VWS V14.01,2013-09-22 07:18:00,
2013-09-22 01:23:00,50.1,29.6,29.76,WNW,300,3.0,4.0,45,0.00,,---,0.00,VWS V14.01,2013-09-22 07:23:00,
2013-09-22 01:28:00,50.2,29.7,29.76,WNW,300,2.0,4.0,45,0.00,,---,0.00,VWS V14.01,2013-09-22 07:28:00,
2013-09-22 01:33:00,50.6,29.5,29.76,WNW,300,1.0,4.0,44,0.00,,---,0.00,VWS V14.01,2013-09-22 07:33:00,
2013-09-22 01:38:00,51.2,30.0,29.76,WNW,300,4.0,5.0,44,0.00,,---,0.00,VWS V14.01,2013-09-22 07:38:00,
2013-09-22 01:43:00,51.7,29.9,29.75,WNW,300,0.0,5.0,43,0.00,,---,0.00,VWS V14.01,2013-09-22 07:43:00,
2013-09-22 01:48:00,51.8,30.0,29.76,WNW,287,5.0,8.0,43,0.00,,---,0.00,VWS V14.01,2013-09-22 07:48:00,
2013-09-22 01:53:00,51.2,30.6,29.75,WNW,284,7.0,7.0,45,0.00,,---,0.00,VWS V14.01,2013-09-22 07:53:00,
2013-09-22 01:58:00,50.7,30.7,29.75,West,278,2.0,6.0,46,0.00,,---,0.00,VWS V14.01,2013-09-22 07:58:00,
2013-09-22 02:03:00,50.5,30.5,29.75,West,277,5.0,6.0,46,0.00,,---,0.00,VWS V14.01,2013-09-22 08:03:00,
2013-09-22 02:08:00,50.5,30.5,29.75,West,277,5.0,5.0,46,0.00,,---,0.00,VWS V14.01,2013-09-22 08:08:00,
2013-09-22 02:13:00,50.5,30.5,29.75,West,277,5.0,6.0,46,0.00,,---,0.00,VWS V14.01,2013-09-22 08:13:00,
2013-09-22 02:18:00,50.6,30.6,29.75,West,277,0.0,3.0,46,0.00,,---,0.00,VWS V14.01,2013-09-22 08:18:00,
2013-09-22 02:23:00,50.6,30.6,29.75,West,277,5.0,5.0,46,0.00,,---,0.00,VWS V14.01,2013-09-22 08:23:00,
2013-09-22 02:28:00,50.5,31.0,29.74,West,281,6.0,7.0,47,0.00,,---,0.00,VWS V14.01,2013-09-22 08:28:00,
2013-09-22 02:33:00,50.5,31.0,29.74,West,281,6.0,6.0,47,0.00,,---,0.00,VWS V14.01,2013-09-22 08:33:00,
2013-09-22 02:38:00,50.8,31.3,29.74,West,277,6.0,7.0,47,0.00,,---,0.00,VWS V14.01,2013-09-22 08:38:00,
2013-09-22 02:43:00,51.0,31.5,29.74,West,281,5.0,7.0,47,0.00,,---,0.00,VWS V14.01,2013-09-22 08:43:00,
2013-09-22 02:48:00,51.2,31.7,29.74,West,281,3.0,3.0,47,0.00,,---,0.00,VWS V14.01,2013-09-22 08:48:00,
2013-09-22 02:53:00,51.0,31.5,29.74,West,281,2.0,2.0,47,0.00,,---,0.00,VWS V14.01,2013-09-22 08:53:00,
2013-09-22 02:58:00,50.8,32.8,29.73,WSW,237,0.0,0.0,50,0.00,,---,0.00,VWS V14.01,2013-09-22 08:58:00,
2013-09-22 03:03:00,50.3,31.9,29.73,WSW,237,0.0,1.0,49,0.00,,---,0.00,VWS V14.01,2013-09-22 09:03:00,
2013-09-22 03:08:00,49.8,32.4,29.73,West,259,5.0,5.0,51,0.00,,---,0.00,VWS V14.01,2013-09-22 09:08:00,
2013-09-22 03:13:00,49.6,32.2,29.73,West,269,6.0,6.0,51,0.00,,---,0.00,VWS V14.01,2013-09-22 09:13:00,
2013-09-22 03:18:00,49.6,32.2,29.73,WNW,288,6.0,7.0,51,0.00,,---,0.00,VWS V14.01,2013-09-22 09:18:00,
2013-09-22 03:23:00,49.7,32.3,29.73,WNW,288,0.0,3.0,51,0.00,,---,0.00,VWS V14.01,2013-09-22 09:23:00,
2013-09-22 03:28:00,49.7,32.3,29.73,WNW,286,5.0,6.0,51,0.00,,---,0.00,VWS V14.01,2013-09-22 09:28:00,
2013-09-22 03:33:00,49.4,32.5,29.73,WNW,292,5.0,6.0,52,0.00,,---,0.00,VWS V14.01,2013-09-22 09:33:00,
2013-09-22 03:38:00,48.9,32.5,29.73,WNW,296,2.0,6.0,53,0.00,,---,0.00,VWS V14.01,2013-09-22 09:38:00,
2013-09-22 03:43:00,48.6,32.3,29.72,WNW,290,5.0,6.0,53,0.00,,---,0.00,VWS V14.01,2013-09-22 09:43:00,
2013-09-22 03:48:00,49.0,32.2,29.73,West,281,5.0,7.0,52,0.00,,---,0.00,VWS V14.01,2013-09-22 09:48:00,
2013-09-22 03:53:00,49.6,32.2,29.73,West,281,6.0,6.0,51,0.00,,---,0.00,VWS V14.01,2013-09-22 09:53:00,
2013-09-22 03:58:00,49.7,32.3,29.72,WNW,288,6.0,7.0,51,0.00,,---,0.00,VWS V14.01,2013-09-22 09:58:00,
2013-09-22 04:03:00,49.6,32.2,29.73,WNW,288,5.0,7.0,51,0.00,,---,0.00,VWS V14.01,2013-09-22 10:03:00,
2013-09-22 04:08:00,49.7,32.3,29.73,West,277,5.0,7.0,51,0.00,,---,0.00,VWS V14.01,2013-09-22 10:08:00,
2013-09-22 04:13:00,49.8,32.4,29.73,West,277,4.0,7.0,51,0.00,,---,0.00,VWS V14.01,2013-09-22 10:13:00,
2013-09-22 04:18:00,49.9,32.5,29.73,West,281,7.0,7.0,51,0.00,,---,0.00,VWS V14.01,2013-09-22 10:18:00,
2013-09-22 04:23:00,49.9,32.5,29.73,WNW,284,6.0,8.0,51,0.00,,---,0.00,VWS V14.01,2013-09-22 10:23:00,
2013-09-22 04:28:00,49.8,32.9,29.72,WNW,299,7.0,7.0,52,0.00,,---,0.00,VWS V14.01,2013-09-22 10:28:00,
2013-09-22 04:33:00,49.7,32.8,29.72,WNW,294,6.0,7.0,52,0.00,,---,0.00,VWS V14.01,2013-09-22 10:33:00,
2013-09-22 04:38:00,49.7,32.8,29.72,WNW,293,7.0,9.0,52,0.00,,---,0.00,VWS V14.01,2013-09-22 10:38:00,
2013-09-22 04:43:00,49.9,33.5,29.72,WNW,283,1.0,5.0,53,0.00,,---,0.00,VWS V14.01,2013-09-22 10:43:00,
2013-09-22 04:48:00,50.0,33.6,29.72,WNW,282,5.0,6.0,53,0.00,,---,0.00,VWS V14.01,2013-09-22 10:48:00,
2013-09-22 04:53:00,50.1,34.1,29.71,West,281,5.0,8.0,54,0.00,,---,0.00,VWS V14.01,2013-09-22 10:53:00,
2013-09-22 04:58:00,50.0,34.5,29.71,WNW,294,6.0,6.0,55,0.00,,---,0.00,VWS V14.01,2013-09-22 10:58:00,
2013-09-22 05:03:00,49.9,34.8,29.71,West,273,1.0,5.0,56,0.00,,---,0.00,VWS V14.01,2013-09-22 11:03:00,
2013-09-22 05:08:00,49.8,34.8,29.71,West,274,1.0,4.0,56,0.00,,---,0.00,VWS V14.01,2013-09-22 11:08:00,
2013-09-22 05:13:00,49.8,34.8,29.71,West,268,4.0,6.0,56,0.00,,---,0.00,VWS V14.01,2013-09-22 11:13:00,
2013-09-22 05:18:00,49.9,34.8,29.70,West,269,4.0,5.0,56,0.00,,---,0.00,VWS V14.01,2013-09-22 11:18:00,
2013-09-22 05:23:00,50.0,34.9,29.70,West,269,1.0,4.0,56,0.00,,---,0.00,VWS V14.01,2013-09-22 11:23:00,
2013-09-22 05:28:00,50.1,35.5,29.70,West,269,1.0,2.0,57,0.00,,---,0.00,VWS V14.01,2013-09-22 11:28:00,
2013-09-22 05:33:00,50.3,35.2,29.70,West,269,0.0,1.0,56,0.00,,---,0.00,VWS V14.01,2013-09-22 11:33:00,
2013-09-22 05:38:00,50.6,35.5,29.70,West,269,2.0,2.0,56,0.00,,---,0.00,VWS V14.01,2013-09-22 11:38:00,
2013-09-22 05:43:00,50.7,35.6,29.70,West,269,2.0,2.0,56,0.00,,---,0.00,VWS V14.01,2013-09-22 11:43:00,
2013-09-22 05:48:00,50.9,35.3,29.70,SW,233,2.0,2.0,55,0.00,,---,0.00,VWS V14.01,2013-09-22 11:48:00,
2013-09-22 05:53:00,51.2,35.6,29.70,SW,232,0.0,4.0,55,0.00,,---,0.00,VWS V14.01,2013-09-22 11:53:00,
2013-09-22 05:58:00,51.2,35.6,29.70,SW,232,0.0,2.0,55,0.00,,---,0.00,VWS V14.01,2013-09-22 11:58:00,
2013-09-22 06:03:00,51.1,35.5,29.71,SW,233,0.0,0.0,55,0.00,,---,0.00,VWS V14.01,2013-09-22 12:03:00,
2013-09-22 06:08:00,50.8,35.2,29.71,SW,233,0.0,1.0,55,0.00,,---,0.00,VWS V14.01,2013-09-22 12:08:00,
2013-09-22 06:13:00,50.6,35.5,29.71,SW,233,0.0,0.0,56,0.00,,---,0.00,VWS V14.01,2013-09-22 12:13:00,
2013-09-22 06:18:00,50.4,35.3,29.71,SSW,199,5.0,7.0,56,0.00,,---,0.00,VWS V14.01,2013-09-22 12:18:00,
2013-09-22 06:23:00,50.3,35.2,29.71,SSW,195,0.0,1.0,56,0.00,,---,0.00,VWS V14.01,2013-09-22 12:23:00,
2013-09-22 06:28:00,50.1,35.0,29.71,SSW,195,4.0,6.0,56,0.00,,---,0.00,VWS V14.01,2013-09-22 12:28:00,
2013-09-22 06:33:00,50.1,35.5,29.71,SSW,195,1.0,4.0,57,0.00,,---,0.00,VWS V14.01,2013-09-22 12:33:00,
2013-09-22 06:38:00,50.0,35.4,29.71,SSW,200,2.0,5.0,57,0.00,,---,0.00,VWS V14.01,2013-09-22 12:38:00,
2013-09-22 06:43:00,50.0,35.4,29.71,SSW,203,0.0,0.0,57,0.00,,---,0.00,VWS V14.01,2013-09-22 12:43:00,
2013-09-22 06:48:00,50.0,35.4,29.72,SSW,203,1.0,1.0,57,0.00,,---,0.00,VWS V14.01,2013-09-22 12:48:00,
2013-09-22 06:53:00,50.0,35.4,29.72,SSW,203,0.0,0.0,57,0.00,,---,0.00,VWS V14.01,2013-09-22 12:53:00,
2013-09-22 06:58:00,50.0,35.4,29.72,SSW,203,0.0,0.0,57,0.00,,---,0.00,VWS V14.01,2013-09-22 12:58:00,
2013-09-22 07:03:00,50.2,36.0,29.72,SSW,203,1.0,1.0,58,0.00,,---,0.00,VWS V14.01,2013-09-22 13:03:00,
2013-09-22 07:08:00,50.5,36.3,29.71,SSW,203,4.0,4.0,58,0.00,,---,0.00,VWS V14.01,2013-09-22 13:08:00,
2013-09-22 07:13:00,50.6,36.4,29.71,SSW,203,5.0,5.0,58,0.00,,---,0.00,VWS V14.01,2013-09-22 13:13:00,
2013-09-22 07:18:00,50.5,38.0,29.71,SSW,206,2.0,3.0,62,0.00,,---,0.00,VWS V14.01,2013-09-22 13:18:00,
2013-09-22 07:23:00,50.1,37.6,29.71,SSW,206,0.0,1.0,62,0.00,,---,0.00,VWS V14.01,2013-09-22 13:23:00,
2013-09-22 07:28:00,49.8,36.9,29.71,SSW,206,0.0,0.0,61,0.00,,---,0.00,VWS V14.01,2013-09-22 13:28:00,
2013-09-22 07:33:00,49.6,36.3,29.71,SSW,206,1.0,2.0,60,0.00,,---,0.00,VWS V14.01,2013-09-22 13:33:00,
2013-09-22 07:38:00,49.9,36.2,29.71,WNW,295,0.0,3.0,59,0.00,,---,0.00,VWS V14.01,2013-09-22 13:38:00,
2013-09-22 07:43:00,50.1,36.8,29.70,WNW,296,1.0,3.0,60,0.00,,---,0.00,VWS V14.01,2013-09-22 13:43:00,
2013-09-22 07:48:00,50.3,37.0,29.70,NW,314,2.0,2.0,60,0.00,,---,0.00,VWS V14.01,2013-09-22 13:48:00,
2013-09-22 07:54:00,50.9,37.5,29.70,NW,314,0.0,0.0,60,0.00,,---,0.00,VWS V14.01,2013-09-22 13:54:00,
2013-09-22 07:59:00,51.9,36.3,29.70,NW,315,0.0,0.0,55,0.00,,---,0.00,VWS V14.01,2013-09-22 13:59:00,
2013-09-22 08:04:00,53.1,37.4,29.70,NW,315,0.0,0.0,55,0.00,,---,0.00,VWS V14.01,2013-09-22 14:04:00,
2013-09-22 08:09:00,54.4,38.1,29.70,NW,315,1.0,1.0,54,0.00,,---,0.00,VWS V14.01,2013-09-22 14:09:00,
2013-09-22 08:14:00,55.7,38.8,29.70,NNE,27,0.0,4.0,53,0.00,,---,0.00,VWS V14.01,2013-09-22 14:14:00,
2013-09-22 08:19:00,56.6,38.2,29.70,SSE,148,1.0,2.0,50,0.00,,---,0.00,VWS V14.01,2013-09-22 14:19:00,
2013-09-22 08:24:00,57.3,37.3,29.70,SE,137,1.0,1.0,47,0.00,,---,0.00,VWS V14.01,2013-09-22 14:24:00,
2013-09-22 08:29:00,57.3,38.8,29.70,SE,137,1.0,2.0,50,0.00,,---,0.00,VWS V14.01,2013-09-22 14:29:00,
2013-09-22 08:34:00,57.3,38.8,29.70,SE,137,0.0,0.0,50,0.00,,---,0.00,VWS V14.01,2013-09-22 14:34:00,
2013-09-22 08:39:00,57.3,38.8,29.70,SE,137,0.0,1.0,50,0.00,,---,0.00,VWS V14.01,2013-09-22 14:39:00,
2013-09-22 08:44:00,57.2,40.2,29.70,SSW,201,0.0,0.0,53,0.00,,---,0.00,VWS V14.01,2013-09-22 14:44:00,
2013-09-22 08:49:00,57.1,39.2,29.70,SSW,201,0.0,4.0,51,0.00,,---,0.00,VWS V14.01,2013-09-22 14:49:00,
2013-09-22 08:54:00,56.8,39.9,29.69,SSW,201,0.0,1.0,53,0.00,,---,0.00,VWS V14.01,2013-09-22 14:54:00,
2013-09-22 08:59:00,56.7,40.7,29.69,SSW,202,1.0,2.0,55,0.00,,---,0.00,VWS V14.01,2013-09-22 14:59:00,
2013-09-22 09:04:00,57.1,39.7,29.69,WNW,290,0.0,5.0,52,0.00,,---,0.00,VWS V14.01,2013-09-22 15:04:00,
2013-09-22 09:09:00,57.7,40.7,29.69,WNW,294,3.0,5.0,53,0.00,,---,0.00,VWS V14.01,2013-09-22 15:09:00,
2013-09-22 09:14:00,58.4,40.4,29.69,WSW,255,7.0,7.0,51,0.00,,---,0.00,VWS V14.01,2013-09-22 15:14:00,
2013-09-22 09:19:00,58.8,39.7,29.68,West,270,5.0,9.0,49,0.00,,---,0.00,VWS V14.01,2013-09-22 15:19:00,
2013-09-22 09:24:00,59.1,39.5,29.68,WSW,252,5.0,8.0,48,0.00,,---,0.00,VWS V14.01,2013-09-22 15:24:00,
2013-09-22 09:29:00,59.6,39.4,29.68,West,264,7.0,7.0,47,0.00,,---,0.00,VWS V14.01,2013-09-22 15:29:00,
2013-09-22 09:34:00,59.9,40.2,29.68,WSW,257,4.0,7.0,48,0.00,,---,0.00,VWS V14.01,2013-09-22 15:34:00,
2013-09-22 09:39:00,60.2,38.2,29.69,SSW,205,0.0,5.0,44,0.00,,---,0.00,VWS V14.01,2013-09-22 15:39:00,
2013-09-22 09:44:00,60.5,39.1,29.68,SSW,205,1.0,2.0,45,0.00,,---,0.00,VWS V14.01,2013-09-22 15:44:00,
2013-09-22 09:49:00,60.9,40.0,29.68,SSW,205,4.0,5.0,46,0.00,,---,0.00,VWS V14.01,2013-09-22 15:49:00,
2013-09-22 09:54:00,61.2,39.1,29.68,SSW,205,5.0,5.0,44,0.00,,---,0.00,VWS V14.01,2013-09-22 15:54:00,
2013-09-22 09:59:00,61.4,38.1,29.68,SSW,205,5.0,5.0,42,0.00,,---,0.00,VWS V14.01,2013-09-22 15:59:00,
2013-09-22 10:04:00,61.4,38.1,29.68,SSW,205,4.0,5.0,42,0.00,,---,0.00,VWS V14.01,2013-09-22 16:04:00,
2013-09-22 10:09:00,61.3,39.2,29.68,SSW,210,1.0,7.0,44,0.00,,---,0.00,VWS V14.01,2013-09-22 16:09:00,
2013-09-22 10:14:00,61.1,40.7,29.68,WSW,252,4.0,6.0,47,0.00,,---,0.00,VWS V14.01,2013-09-22 16:14:00,
2013-09-22 10:19:00,60.9,40.0,29.68,West,266,1.0,6.0,46,0.00,,---,0.00,VWS V14.01,2013-09-22 16:19:00,
2013-09-22 10:24:00,60.9,41.1,29.68,NW,323,2.0,4.0,48,0.00,,---,0.00,VWS V14.01,2013-09-22 16:24:00,
2013-09-22 10:29:00,61.3,38.6,29.67,NW,323,1.0,2.0,43,0.00,,---,0.00,VWS V14.01,2013-09-22 16:29:00,
2013-09-22 10:34:00,61.6,38.9,29.67,NW,321,0.0,0.0,43,0.00,,---,0.00,VWS V14.01,2013-09-22 16:34:00,
2013-09-22 10:39:00,61.4,39.9,29.67,NW,306,0.0,4.0,45,0.00,,---,0.00,VWS V14.01,2013-09-22 16:39:00,
2013-09-22 10:44:00,61.0,37.8,29.67,South,183,4.0,5.0,42,0.00,,---,0.00,VWS V14.01,2013-09-22 16:44:00,
2013-09-22 10:49:00,60.5,39.1,29.66,South,183,1.0,2.0,45,0.00,,---,0.00,VWS V14.01,2013-09-22 16:49:00,
2013-09-22 10:54:00,60.3,41.1,29.66,WSW,242,7.0,7.0,49,0.00,,---,0.00,VWS V14.01,2013-09-22 16:54:00,
2013-09-22 10:59:00,60.0,40.8,29.66,SW,232,9.0,12.0,49,0.00,,---,0.00,VWS V14.01,2013-09-22 16:59:00,
2013-09-22 11:04:00,59.5,41.4,29.66,WSW,252,2.0,6.0,51,0.00,,---,0.00,VWS V14.01,2013-09-22 17:04:00,
2013-09-22 11:09:00,59.0,41.9,29.66,SSW,212,6.0,6.0,53,0.00,,---,0.00,VWS V14.01,2013-09-22 17:09:00,
2013-09-22 11:14:00,58.3,41.3,29.66,West,273,5.0,5.0,53,0.00,,---,0.00,VWS V14.01,2013-09-22 17:14:00,
2013-09-22 11:19:00,57.8,40.8,29.65,West,279,7.0,12.0,53,0.00,,---,0.00,VWS V14.01,2013-09-22 17:19:00,
2013-09-22 11:24:00,57.2,41.2,29.65,WNW,296,0.0,2.0,55,0.00,,---,0.00,VWS V14.01,2013-09-22 17:24:00,
2013-09-22 11:29:00,56.7,41.7,29.65,West,281,0.0,2.0,57,0.00,,---,0.00,VWS V14.01,2013-09-22 17:29:00,
2013-09-22 11:34:00,56.1,41.1,29.66,WNW,287,5.0,7.0,57,0.00,,---,0.00,VWS V14.01,2013-09-22 17:34:00,
2013-09-22 11:39:00,55.4,40.9,29.66,West,275,3.0,5.0,58,0.00,,---,0.00,VWS V14.01,2013-09-22 17:39:00,
2013-09-22 11:44:00,54.9,40.9,29.66,WNW,292,5.0,6.0,59,0.00,,---,0.00,VWS V14.01,2013-09-22 17:44:00,
2013-09-22 11:49:00,54.3,41.2,29.66,West,263,3.0,10.0,61,0.00,,---,0.00,VWS V14.01,2013-09-22 17:49:00,
2013-09-22 11:54:00,53.5,42.4,29.65,West,281,1.0,10.0,66,0.00,,---,0.00,VWS V14.01,2013-09-22 17:54:00,
2013-09-22 11:59:00,52.6,42.7,29.65,West,270,2.0,10.0,69,0.00,,---,0.00,VWS V14.01,2013-09-22 17:59:00,
2013-09-22 12:04:00,51.8,42.3,29.65,NW,311,8.0,9.0,70,0.00,,---,0.00,VWS V14.01,2013-09-22 18:04:00,
2013-09-22 12:09:00,51.5,43.1,29.65,NW,306,4.0,4.0,73,0.00,,---,0.00,VWS V14.01,2013-09-22 18:09:00,
2013-09-22 12:15:00,51.1,43.5,29.64,West,277,4.0,5.0,75,0.00,,---,0.00,VWS V14.01,2013-09-22 18:15:00,
2013-09-22 12:20:00,51.0,43.7,29.63,WNW,294,6.0,7.0,76,0.01,,---,0.01,VWS V14.01,2013-09-22 18:20:00,
2013-09-22 12:25:00,51.4,44.8,29.63,West,273,0.0,0.0,78,0.01,,---,0.01,VWS V14.01,2013-09-22 18:25:00,
2013-09-22 12:30:00,52.1,44.4,29.63,West,273,2.0,5.0,75,0.01,,---,0.01,VWS V14.01,2013-09-22 18:30:00,
2013-09-22 12:35:00,53.0,44.2,29.63,West,273,0.0,1.0,72,0.01,,---,0.01,VWS V14.01,2013-09-22 18:35:00,
2013-09-22 12:40:00,53.9,44.3,29.64,WSW,248,1.0,7.0,70,0.01,,---,0.01,VWS V14.01,2013-09-22 18:40:00,
2013-09-22 12:45:00,55.7,44.5,29.64,SSW,211,5.0,7.0,66,0.01,,---,0.01,VWS V14.01,2013-09-22 18:45:00,
2013-09-22 12:50:00,57.1,45.5,29.64,West,263,9.0,9.0,65,0.01,,---,0.01,VWS V14.01,2013-09-22 18:50:00,
2013-09-22 12:55:00,57.4,43.6,29.63,WSW,245,0.0,8.0,60,0.01,,---,0.01,VWS V14.01,2013-09-22 18:55:00,
2013-09-22 13:00:00,57.2,43.0,29.63,SSW,207,8.0,11.0,59,0.01,,---,0.01,VWS V14.01,2013-09-22 19:00:00,
2013-09-22 13:05:00,57.1,42.5,29.63,SSW,199,2.0,7.0,58,0.01,,---,0.01,VWS V14.01,2013-09-22 19:05:00,
2013-09-22 13:10:00,56.9,42.3,29.62,SSW,202,2.0,6.0,58,0.01,,---,0.01,VWS V14.01,2013-09-22 19:10:00,
2013-09-22 13:15:00,56.8,42.2,29.62,SSW,202,1.0,4.0,58,0.01,,---,0.01,VWS V14.01,2013-09-22 19:15:00,
2013-09-22 13:20:00,56.7,42.5,29.62,SSW,202,0.0,0.0,59,0.00,,---,0.01,VWS V14.01,2013-09-22 19:20:00,
2013-09-22 13:25:00,56.7,42.5,29.62,SSW,202,0.0,0.0,59,0.00,,---,0.01,VWS V14.01,2013-09-22 19:25:00,
2013-09-22 13:30:00,56.8,42.6,29.61,SSW,205,5.0,6.0,59,0.00,,---,0.01,VWS V14.01,2013-09-22 19:30:00,
2013-09-22 13:35:00,57.1,42.5,29.60,SSW,211,5.0,5.0,58,0.00,,---,0.01,VWS V14.01,2013-09-22 19:35:00,
2013-09-22 13:40:00,57.1,41.6,29.60,WSW,246,2.0,4.0,56,0.00,,---,0.01,VWS V14.01,2013-09-22 19:40:00,
2013-09-22 13:45:00,57.0,41.0,29.60,WSW,248,5.0,7.0,55,0.00,,---,0.01,VWS V14.01,2013-09-22 19:45:00,
2013-09-22 13:50:00,56.7,41.2,29.60,WSW,248,0.0,1.0,56,0.00,,---,0.01,VWS V14.01,2013-09-22 19:50:00,
2013-09-22 13:55:00,56.4,44.4,29.59,WSW,248,2.0,2.0,64,0.00,,---,0.01,VWS V14.01,2013-09-22 19:55:00,
2013-09-22 14:00:00,55.5,44.7,29.59,WSW,248,2.0,2.0,67,0.00,,---,0.01,VWS V14.01,2013-09-22 20:00:00,
2013-09-22 14:05:00,54.9,44.2,29.59,West,262,4.0,4.0,67,0.00,,---,0.01,VWS V14.01,2013-09-22 20:05:00,
2013-09-22 14:10:00,54.8,45.2,29.58,West,262,2.0,4.0,70,0.00,,---,0.01,VWS V14.01,2013-09-22 20:10:00,
2013-09-22 14:15:00,55.0,45.8,29.59,WSW,246,6.0,6.0,71,0.00,,---,0.01,VWS V14.01,2013-09-22 20:15:00,
2013-09-22 14:20:00,55.1,44.0,29.59,WSW,247,3.0,9.0,66,0.00,,---,0.01,VWS V14.01,2013-09-22 20:20:00,
2013-09-22 14:25:00,55.1,44.3,29.58,West,263,2.0,6.0,67,0.00,,---,0.01,VWS V14.01,2013-09-22 20:25:00,
2013-09-22 14:30:00,55.2,43.7,29.58,SW,225,0.0,1.0,65,0.00,,---,0.01,VWS V14.01,2013-09-22 20:30:00,
2013-09-22 14:35:00,55.3,41.7,29.58,SW,225,0.0,0.0,60,0.00,,---,0.01,VWS V14.01,2013-09-22 20:35:00,
2013-09-22 14:40:00,55.5,41.9,29.57,SW,225,0.0,0.0,60,0.00,,---,0.01,VWS V14.01,2013-09-22 20:40:00,
2013-09-22 14:45:00,55.9,41.3,29.57,SW,225,0.0,0.0,58,0.00,,---,0.01,VWS V14.01,2013-09-22 20:45:00,
2013-09-22 14:50:00,56.1,41.5,29.56,SW,225,0.0,1.0,58,0.00,,---,0.01,VWS V14.01,2013-09-22 20:50:00,
2013-09-22 14:55:00,56.3,41.7,29.56,SSE,165,2.0,5.0,58,0.00,,---,0.01,VWS V14.01,2013-09-22 20:55:00,
2013-09-22 15:00:00,56.6,43.3,29.56,SSE,165,1.0,4.0,61,0.00,,---,0.01,VWS V14.01,2013-09-22 21:00:00,
2013-09-22 15:05:00,56.9,43.2,29.55,ESE,111,4.0,4.0,60,0.00,,---,0.01,VWS V14.01,2013-09-22 21:05:00,
2013-09-22 15:10:00,57.0,42.4,29.55,ESE,111,4.0,5.0,58,0.00,,---,0.01,VWS V14.01,2013-09-22 21:10:00,
2013-09-22 15:15:00,57.3,40.8,29.54,SE,144,5.0,11.0,54,0.00,,---,0.01,VWS V14.01,2013-09-22 21:15:00,
2013-09-22 15:20:00,57.4,40.4,29.54,ESE,111,10.0,11.0,53,0.00,,---,0.01,VWS V14.01,2013-09-22 21:20:00,
2013-09-22 15:25:00,57.5,40.0,29.54,SE,125,7.0,11.0,52,0.00,,---,0.01,VWS V14.01,2013-09-22 21:25:00,
2013-09-22 15:30:00,57.3,40.3,29.54,East,101,7.0,8.0,53,0.00,,---,0.01,VWS V14.01,2013-09-22 21:30:00,
2013-09-22 15:35:00,57.1,40.2,29.54,ESE,103,12.0,12.0,53,0.00,,---,0.01,VWS V14.01,2013-09-22 21:35:00,
2013-09-22 15:40:00,56.8,40.3,29.54,East,87,4.0,8.0,54,0.00,,---,0.01,VWS V14.01,2013-09-22 21:40:00,
2013-09-22 15:45:00,56.6,41.6,29.54,SE,133,0.0,4.0,57,0.00,,---,0.01,VWS V14.01,2013-09-22 21:45:00,
2013-09-22 15:50:00,56.3,41.3,29.54,ESE,120,7.0,7.0,57,0.00,,---,0.01,VWS V14.01,2013-09-22 21:50:00,
2013-09-22 15:55:00,55.8,40.8,29.54,East,98,10.0,10.0,57,0.00,,---,0.01,VWS V14.01,2013-09-22 21:55:00,
2013-09-22 16:00:00,55.4,40.9,29.55,East,101,5.0,6.0,58,0.00,,---,0.01,VWS V14.01,2013-09-22 22:00:00,
2013-09-22 16:05:00,55.0,43.1,29.55,East,91,12.0,12.0,64,0.01,,---,0.02,VWS V14.01,2013-09-22 22:05:00,
2013-09-22 16:10:00,52.5,41.9,29.55,East,88,9.0,19.0,67,0.02,,---,0.03,VWS V14.01,2013-09-22 22:10:00,
2013-09-22 16:15:00,50.9,41.8,29.54,East,98,14.0,14.0,71,0.02,,---,0.03,VWS V14.01,2013-09-22 22:15:00,
2013-09-22 16:20:00,50.6,40.8,29.55,East,80,6.0,10.0,69,0.02,,---,0.03,VWS V14.01,2013-09-22 22:20:00,
2013-09-22 16:25:00,50.3,42.3,29.55,ENE,65,10.0,10.0,74,0.02,,---,0.03,VWS V14.01,2013-09-22 22:25:00,
2013-09-22 16:30:00,50.3,42.0,29.55,East,92,6.0,6.0,73,0.02,,---,0.03,VWS V14.01,2013-09-22 22:30:00,
2013-09-22 16:35:00,50.3,42.0,29.55,ENE,61,3.0,6.0,73,0.02,,---,0.03,VWS V14.01,2013-09-22 22:35:00,
2013-09-22 16:40:00,50.4,42.4,29.55,ENE,61,0.0,4.0,74,0.02,,---,0.03,VWS V14.01,2013-09-22 22:40:00,
2013-09-22 16:45:00,50.5,42.5,29.55,ENE,58,6.0,6.0,74,0.02,,---,0.03,VWS V14.01,2013-09-22 22:45:00,
2013-09-22 16:50:00,50.5,43.6,29.55,NNW,342,7.0,7.0,77,0.02,,---,0.03,VWS V14.01,2013-09-22 22:50:00,
2013-09-22 16:55:00,50.4,43.5,29.54,NE,40,1.0,7.0,77,0.02,,---,0.03,VWS V14.01,2013-09-22 22:55:00,
2013-09-22 17:00:00,50.1,43.2,29.55,NNW,337,7.0,9.0,77,0.02,,---,0.03,VWS V14.01,2013-09-22 23:00:00,
2013-09-22 17:05:00,49.7,41.8,29.55,NNW,331,2.0,8.0,74,0.01,,---,0.03,VWS V14.01,2013-09-22 23:05:00,
2013-09-22 17:10:00,49.5,41.9,29.55,NNW,328,0.0,4.0,75,0.00,,---,0.03,VWS V14.01,2013-09-22 23:10:00,
2013-09-22 17:15:00,49.3,41.4,29.55,NNW,328,0.0,0.0,74,0.00,,---,0.03,VWS V14.01,2013-09-22 23:15:00,
2013-09-22 17:20:00,49.2,42.6,29.56,NNW,328,0.0,0.0,78,0.00,,---,0.03,VWS V14.01,2013-09-22 23:20:00,
2013-09-22 17:25:00,49.2,42.6,29.57,NNW,328,2.0,4.0,78,0.00,,---,0.03,VWS V14.01,2013-09-22 23:25:00,
2013-09-22 17:30:00,49.0,42.5,29.58,South,179,0.0,5.0,78,0.00,,---,0.03,VWS V14.01,2013-09-22 23:30:00,
2013-09-22 17:35:00,48.1,42.2,29.58,WSW,248,8.0,11.0,80,0.06,,---,0.09,VWS V14.01,2013-09-22 23:35:00,
2013-09-22 17:40:00,47.0,42.1,29.59,SSW,207,10.0,10.0,83,0.06,,---,0.09,VWS V14.01,2013-09-22 23:40:00,
2013-09-22 17:45:00,46.1,41.8,29.59,SSW,202,7.0,14.0,85,0.07,,---,0.10,VWS V14.01,2013-09-22 23:45:00,
2013-09-22 17:50:00,45.6,41.4,29.59,South,173,7.0,8.0,85,0.07,,---,0.10,VWS V14.01,2013-09-22 23:50:00,
2013-09-22 17:55:00,45.2,41.3,29.59,South,180,9.0,10.0,86,0.07,,---,0.10,VWS V14.01,2013-09-22 23:55:00,
2013-09-22 18:01:00,44.7,40.8,29.59,South,175,3.0,6.0,86,0.07,,---,0.10,VWS V14.01,2013-09-23 00:01:00,
2013-09-22 18:06:00,44.4,40.8,29.59,SSW,201,7.0,7.0,87,0.07,,---,0.10,VWS V14.01,2013-09-23 00:06:00,
2013-09-22 18:11:00,44.1,40.5,29.58,SW,217,0.0,1.0,87,0.08,,---,0.11,VWS V14.01,2013-09-23 00:11:00,
2013-09-22 18:16:00,43.9,40.6,29.57,SW,215,0.0,0.0,88,0.08,,---,0.11,VWS V14.01,2013-09-23 00:16:00,
2013-09-22 18:21:00,43.9,40.6,29.57,SW,215,0.0,0.0,88,0.08,,---,0.11,VWS V14.01,2013-09-23 00:21:00,
2013-09-22 18:26:00,43.8,40.8,29.56,SW,215,0.0,0.0,89,0.08,,---,0.11,VWS V14.01,2013-09-23 00:26:00,
2013-09-22 18:31:00,43.8,40.8,29.56,SW,215,0.0,0.0,89,0.08,,---,0.11,VWS V14.01,2013-09-23 00:31:00,
2013-09-22 18:36:00,43.8,40.8,29.56,SW,215,0.0,0.0,89,0.02,,---,0.11,VWS V14.01,2013-09-23 00:36:00,
2013-09-22 18:41:00,43.7,41.0,29.56,SW,215,0.0,0.0,90,0.02,,---,0.11,VWS V14.01,2013-09-23 00:41:00,
2013-09-22 18:46:00,43.7,41.0,29.55,SW,215,0.0,0.0,90,0.01,,---,0.11,VWS V14.01,2013-09-23 00:46:00,
2013-09-22 18:51:00,43.6,40.6,29.55,SW,215,0.0,0.0,89,0.01,,---,0.11,VWS V14.01,2013-09-23 00:51:00,
2013-09-22 18:56:00,43.4,40.4,29.54,SW,215,0.0,1.0,89,0.01,,---,0.11,VWS V14.01,2013-09-23 00:56:00,
2013-09-22 19:01:00,43.3,40.0,29.53,SW,215,1.0,2.0,88,0.01,,---,0.11,VWS V14.01,2013-09-23 01:01:00,
2013-09-22 19:06:00,43.2,40.2,29.53,SW,232,4.0,4.0,89,0.01,,---,0.11,VWS V14.01,2013-09-23 01:06:00,
2013-09-22 19:11:00,43.2,40.5,29.54,SW,228,2.0,3.0,90,0.00,,---,0.11,VWS V14.01,2013-09-23 01:11:00,
2013-09-22 19:16:00,43.1,40.1,29.53,SW,232,5.0,5.0,89,0.00,,---,0.11,VWS V14.01,2013-09-23 01:16:00,
2013-09-22 19:21:00,43.0,40.3,29.52,NW,309,5.0,7.0,90,0.00,,---,0.11,VWS V14.01,2013-09-23 01:21:00,
2013-09-22 19:26:00,42.9,40.2,29.52,WNW,299,3.0,5.0,90,0.00,,---,0.11,VWS V14.01,2013-09-23 01:26:00,
2013-09-22 19:32:00,42.8,40.1,29.52,WNW,291,5.0,5.0,90,0.00,,---,0.11,VWS V14.01,2013-09-23 01:32:00,
2013-09-22 19:37:00,42.8,39.8,29.52,West,274,4.0,4.0,89,0.00,,---,0.11,VWS V14.01,2013-09-23 01:37:00,
2013-09-22 19:42:00,42.8,40.1,29.53,West,274,1.0,1.0,90,0.00,,---,0.11,VWS V14.01,2013-09-23 01:42:00,
2013-09-22 19:47:00,42.8,39.8,29.53,SW,214,0.0,1.0,89,0.00,,---,0.11,VWS V14.01,2013-09-23 01:47:00,
2013-09-22 19:52:00,42.8,40.1,29.53,SW,231,3.0,5.0,90,0.00,,---,0.11,VWS V14.01,2013-09-23 01:52:00,
2013-09-22 19:57:00,42.9,39.9,29.53,WSW,254,4.0,5.0,89,0.00,,---,0.11,VWS V14.01,2013-09-23 01:57:00,
2013-09-22 20:02:00,42.9,39.9,29.53,West,259,6.0,6.0,89,0.00,,---,0.11,VWS V14.01,2013-09-23 02:02:00,
2013-09-22 20:07:00,43.0,40.0,29.52,West,280,6.0,8.0,89,0.00,,---,0.11,VWS V14.01,2013-09-23 02:07:00,
2013-09-22 20:12:00,42.9,39.6,29.52,West,278,5.0,5.0,88,0.00,,---,0.11,VWS V14.01,2013-09-23 02:12:00,
2013-09-22 20:17:00,42.9,39.6,29.53,West,277,0.0,2.0,88,0.00,,---,0.11,VWS V14.01,2013-09-23 02:17:00,
2013-09-22 20:22:00,42.9,39.6,29.52,WSW,254,6.0,7.0,88,0.00,,---,0.11,VWS V14.01,2013-09-23 02:22:00,
2013-09-22 20:27:00,43.0,39.4,29.52,WSW,252,0.0,0.0,87,0.00,,---,0.11,VWS V14.01,2013-09-23 02:27:00,
2013-09-22 20:32:00,43.0,39.4,29.52,WSW,252,0.0,2.0,87,0.00,,---,0.11,VWS V14.01,2013-09-23 02:32:00,
2013-09-22 20:37:00,43.0,39.4,29.52,WSW,252,2.0,7.0,87,0.00,,---,0.11,VWS V14.01,2013-09-23 02:37:00,
2013-09-22 20:42:00,43.0,39.4,29.52,West,270,2.0,6.0,87,0.00,,---,0.11,VWS V14.01,2013-09-23 02:42:00,
2013-09-22 20:47:00,43.0,39.7,29.52,WNW,294,2.0,6.0,88,0.00,,---,0.11,VWS V14.01,2013-09-23 02:47:00,
2013-09-22 20:52:00,43.0,39.7,29.51,North,350,3.0,6.0,88,0.00,,---,0.11,VWS V14.01,2013-09-23 02:52:00,
2013-09-22 20:58:00,43.1,39.8,29.52,North,350,0.0,0.0,88,0.00,,---,0.11,VWS V14.01,2013-09-23 02:58:00,
2013-09-22 21:03:00,43.1,39.8,29.51,North,350,0.0,0.0,88,0.00,,---,0.11,VWS V14.01,2013-09-23 03:03:00,
2013-09-22 21:08:00,43.1,39.8,29.52,North,350,0.0,0.0,88,0.00,,---,0.11,VWS V14.01,2013-09-23 03:08:00,
2013-09-22 21:13:00,43.1,39.5,29.52,NNE,16,4.0,6.0,87,0.00,,---,0.11,VWS V14.01,2013-09-23 03:13:00,
2013-09-22 21:18:00,43.3,39.4,29.53,North,5,2.0,2.0,86,0.00,,---,0.11,VWS V14.01,2013-09-23 03:18:00,
2013-09-22 21:23:00,43.3,39.7,29.52,North,5,0.0,0.0,87,0.00,,---,0.11,VWS V14.01,2013-09-23 03:23:00,
2013-09-22 21:28:00,43.3,39.7,29.52,North,5,0.0,1.0,87,0.00,,---,0.11,VWS V14.01,2013-09-23 03:28:00,
2013-09-22 21:33:00,43.3,39.7,29.52,North,5,0.0,0.0,87,0.00,,---,0.11,VWS V14.01,2013-09-23 03:33:00,
2013-09-22 21:38:00,43.4,39.8,29.53,North,5,0.0,0.0,87,0.00,,---,0.11,VWS V14.01,2013-09-23 03:38:00,
2013-09-22 21:43:00,43.5,40.2,29.53,North,5,0.0,0.0,88,0.00,,---,0.11,VWS V14.01,2013-09-23 03:43:00,
2013-09-22 21:48:00,43.4,40.1,29.53,North,5,0.0,0.0,88,0.00,,---,0.11,VWS V14.01,2013-09-23 03:48:00,
2013-09-22 21:54:00,43.4,40.1,29.54,WNW,294,6.0,7.0,88,0.00,,---,0.11,VWS V14.01,2013-09-23 03:54:00,
2013-09-22 21:59:00,43.3,39.7,29.53,WNW,292,3.0,6.0,87,0.00,,---,0.11,VWS V14.01,2013-09-23 03:59:00,
2013-09-22 22:01:00,43.3,39.7,29.53,NNW,344,3.0,3.0,87,0.00,,---,0.11,VWS V14.01,2013-09-23 04:01:00,
2013-09-22 22:06:00,43.2,39.3,29.53,West,281,1.0,2.0,86,0.00,,---,0.11,VWS V14.01,2013-09-23 04:06:00,
2013-09-22 22:12:00,43.0,39.1,29.54,West,264,4.0,7.0,86,0.00,,---,0.11,VWS V14.01,2013-09-23 04:12:00,
2013-09-22 22:17:00,42.8,38.9,29.54,West,266,7.0,7.0,86,0.01,,---,0.12,VWS V14.01,2013-09-23 04:17:00,
2013-09-22 22:22:00,42.4,38.5,29.55,WSW,257,4.0,7.0,86,0.01,,---,0.12,VWS V14.01,2013-09-23 04:22:00,
2013-09-22 22:27:00,41.9,38.0,29.54,WSW,258,5.0,9.0,86,0.02,,---,0.13,VWS V14.01,2013-09-23 04:27:00,
2013-09-22 22:32:00,41.5,37.9,29.54,West,273,5.0,9.0,87,0.02,,---,0.13,VWS V14.01,2013-09-23 04:32:00,
2013-09-22 22:37:00,41.1,37.5,29.53,WNW,294,9.0,13.0,87,0.03,,---,0.14,VWS V14.01,2013-09-23 04:37:00,
2013-09-22 22:42:00,40.8,37.2,29.53,NW,315,0.0,4.0,87,0.03,,---,0.14,VWS V14.01,2013-09-23 04:42:00,
2013-09-22 22:47:00,40.5,37.2,29.54,West,269,0.0,4.0,88,0.03,,---,0.14,VWS V14.01,2013-09-23 04:47:00,
2013-09-22 22:52:00,40.3,37.0,29.54,SW,225,2.0,4.0,88,0.03,,---,0.14,VWS V14.01,2013-09-23 04:52:00,
2013-09-22 22:58:00,40.0,36.7,29.54,SW,227,1.0,2.0,88,0.03,,---,0.14,VWS V14.01,2013-09-23 04:58:00,
2013-09-22 23:03:00,39.8,36.8,29.55,SW,227,0.0,4.0,89,0.04,,---,0.15,VWS V14.01,2013-09-23 05:03:00,
2013-09-22 23:08:00,39.6,36.3,29.54,SW,227,0.0,1.0,88,0.04,,---,0.15,VWS V14.01,2013-09-23 05:08:00,
2013-09-22 23:13:00,39.4,36.2,29.54,WNW,289,2.0,2.0,88,0.05,,---,0.16,VWS V14.01,2013-09-23 05:13:00,
2013-09-22 23:18:00,39.1,35.8,29.54,West,279,0.0,1.0,88,0.04,,---,0.16,VWS V14.01,2013-09-23 05:18:00,
2013-09-22 23:23:00,39.0,36.0,29.54,West,260,4.0,5.0,89,0.04,,---,0.16,VWS V14.01,2013-09-23 05:23:00,
2013-09-22 23:28:00,38.9,35.9,29.54,West,261,0.0,2.0,89,0.04,,---,0.17,VWS V14.01,2013-09-23 05:28:00,
2013-09-22 23:33:00,38.8,35.8,29.54,WSW,252,6.0,7.0,89,0.03,,---,0.17,VWS V14.01,2013-09-23 05:33:00,
2013-09-22 23:38:00,38.6,35.6,29.54,WSW,257,0.0,0.0,89,0.03,,---,0.17,VWS V14.01,2013-09-23 05:38:00,
2013-09-22 23:43:00,38.6,35.9,29.54,WNW,286,0.0,0.0,90,0.04,,---,0.18,VWS V14.01,2013-09-23 05:43:00,
2013-09-22 23:48:00,38.5,35.5,29.53,WNW,288,2.0,8.0,89,0.04,,---,0.18,VWS V14.01,2013-09-23 05:48:00,
2013-09-22 23:53:00,38.5,35.5,29.53,West,275,0.0,2.0,89,0.04,,---,0.18,VWS V14.01,2013-09-23 05:53:00,
2013-09-22 23:58:00,38.5,35.8,29.53,WSW,244,0.0,8.0,90,0.04,,---,0.18,VWS V14.01,2013-09-23 05:58:00,